Danville, IN

5:45 AM EDT on April 19, 2018 (GMT -0400)
Vermilion County

Weather History for KDNV - January, 2014

Change the Weather History Date:

Sunday, January 19, 2014

  Actual Average (KLAF) Record (KLAF)
Temperature  
Mean Temperature 23 °F -  
Max Temperature 36 °F 30 °F 57 °F (2006)
Min Temperature 10 °F 15 °F -16 °F (1985)
Degree Days  
Heating Degree Days 42    
Moisture  
Dew Point 20 °F    
Average Humidity 81    
Maximum Humidity 95    
Minimum Humidity 65    
Precipitation  
Precipitation 0.00 in - - ()
Sea Level Pressure  
Sea Level Pressure 29.78 in    
Wind  
Wind Speed 15 mph (SW)    
Max Wind Speed 26 mph    
Max Gust Speed 36 mph    
Visibility 9 miles    
Events Snow    
Averages and records for this station are not official NWS values.
T = Trace of Precipitation, MM = Missing Value Source: NWS Daily Summary

Daily Weather History Graph

Daily Weather History Graph

Search for Another Location

Airport or City:

Astronomy

Jan. 19, 2014 Rise Set
Actual Time 7:09 AM CST 4:53 PM CST
Civil Twilight 6:39 AM CST 5:23 PM CST
Nautical Twilight 6:06 AM CST 5:56 PM CST
Astronomical Twilight 5:33 AM CST 6:28 PM CST
Moon 8:31 PM CST 8:38 AM CST
Length of Visible Light 10h 43m
Length of Day
9h 44m
Waning Gibbous, 89% of the Moon is Illuminated
Jan 19
Waning Gibbous
Jan 23
Last Quarter
Jan 30
New
Feb 6
First Quarter
Feb 14
Full

Hourly Weather History & Observations

Time (CST) Temp. Windchill Dew Point Humidity Pressure Visibility Wind Dir Wind Speed Gust Speed Precip Events Conditions
12:15 AM 16.3 °F 3.4 °F 14.2 °F 91% 29.83 in 7.0 mi NW 11.5 mph - N/A   Overcast
12:35 AM 14.7 °F 2.9 °F 13.1 °F 93% 29.83 in 5.0 mi NW 9.2 mph - N/A   Overcast
12:55 AM 14.5 °F 4.6 °F 12.9 °F 93% 29.83 in 7.0 mi NW 6.9 mph - N/A   Overcast
1:15 AM 14.7 °F 3.8 °F 13.1 °F 93% 29.85 in 7.0 mi WNW 8.1 mph - N/A   Overcast
1:35 AM 14.9 °F 2.3 °F 13.1 °F 93% 29.85 in 7.0 mi NW 10.4 mph - N/A   Overcast
1:55 AM 15.1 °F 1.1 °F 13.3 °F 93% 29.86 in 7.0 mi WNW 12.7 mph - N/A   Overcast
2:15 AM 14.0 °F 2.0 °F 12.9 °F 95% 29.88 in 3.0 mi WNW 9.2 mph - N/A   Overcast
2:35 AM 14.9 °F 2.3 °F 13.3 °F 93% 29.89 in 5.0 mi WNW 10.4 mph - N/A   Overcast
2:55 AM 14.5 °F 2.7 °F 12.7 °F 93% 29.89 in 7.0 mi West 9.2 mph - N/A   Overcast
3:15 AM 11.5 °F -1.9 °F 9.3 °F 91% 29.88 in 7.0 mi West 10.4 mph - N/A   Scattered Clouds
3:35 AM 11.3 °F -1.3 °F 9.3 °F 92% 29.90 in 10.0 mi West 9.2 mph - N/A   Scattered Clouds
3:55 AM 10.4 °F -2.4 °F 8.2 °F 91% 29.90 in 10.0 mi West 9.2 mph - N/A   Scattered Clouds
4:15 AM 12.9 °F -0.2 °F 10.8 °F 91% 29.91 in 10.0 mi West 10.4 mph - N/A   Mostly Cloudy
4:35 AM 13.1 °F -0.7 °F 10.9 °F 91% 29.92 in 10.0 mi West 11.5 mph - N/A   Overcast
4:55 AM 14.0 °F -0.2 °F 12.0 °F 92% 29.91 in 10.0 mi West 12.7 mph - N/A   Overcast
5:15 AM 14.7 °F 0.7 °F 12.7 °F 92% 29.92 in 10.0 mi West 12.7 mph - N/A   Overcast
5:35 AM 15.8 °F 3.4 °F 13.8 °F 92% 29.91 in 10.0 mi WSW 10.4 mph - N/A   Overcast
5:55 AM 15.8 °F 3.4 °F 13.6 °F 91% 29.91 in 10.0 mi WSW 10.4 mph - N/A   Mostly Cloudy
6:15 AM 16.0 °F 4.4 °F 13.6 °F 90% 29.91 in 10.0 mi WSW 9.2 mph - N/A   Scattered Clouds
6:35 AM 15.6 °F 3.2 °F 13.3 °F 90% 29.91 in 10.0 mi SW 10.4 mph - N/A   Clear
6:55 AM 16.3 °F 2.7 °F 13.5 °F 88% 29.90 in 10.0 mi SW 12.7 mph - N/A   Scattered Clouds
7:15 AM 16.0 °F 1.7 °F 13.1 °F 88% 29.90 in 10.0 mi SW 13.8 mph - N/A   Clear
7:35 AM 16.0 °F 2.3 °F 13.1 °F 88% 29.89 in 10.0 mi SW 12.7 mph - N/A   Clear
7:55 AM 16.7 °F 2.0 °F 13.6 °F 88% 29.89 in 10.0 mi SW 15.0 mph 20.7 mph N/A   Clear
8:15 AM 17.2 °F 3.9 °F 13.6 °F 86% 29.89 in 10.0 mi SSW 12.7 mph 19.6 mph N/A   Clear
8:35 AM 17.6 °F 2.2 °F 14.0 °F 86% 29.89 in 7.0 mi SW 17.3 mph 21.9 mph N/A   Clear
8:55 AM 19.0 °F 2.4 °F 14.5 °F 83% 29.89 in 7.0 mi SW 21.9 mph 27.6 mph N/A   Clear
9:15 AM 20.1 °F 5.0 °F 15.3 °F 81% 29.89 in 7.0 mi SW 18.4 mph 25.3 mph N/A   Clear
9:35 AM 20.3 °F 3.3 °F 15.8 °F 83% 29.89 in 7.0 mi SW 24.2 mph 28.8 mph N/A Snow Light Snow
9:55 AM 21.0 °F 5.4 °F 16.5 °F 83% 29.89 in 7.0 mi SW 20.7 mph 26.5 mph N/A   Scattered Clouds
10:15 AM 22.1 °F 7.6 °F 17.2 °F 82% 29.90 in 7.0 mi SW 18.4 mph 25.3 mph N/A   Scattered Clouds
10:35 AM 22.6 °F 7.9 °F 17.8 °F 82% 29.89 in 4.0 mi SSW 19.6 mph 28.8 mph N/A   Haze
10:55 AM 23.5 °F 8.7 °F 18.5 °F 81% 29.87 in 7.0 mi SSW 20.7 mph 28.8 mph N/A   Clear
11:15 AM 24.3 °F 8.9 °F 18.5 °F 79% 29.86 in 7.0 mi SW 23.0 mph 31.1 mph N/A   Clear
11:35 AM 25.2 °F 10.1 °F 19.8 °F 80% 29.84 in 5.0 mi SSW 23.0 mph 27.6 mph N/A   Haze
11:55 AM 26.1 °F 11.6 °F 20.1 °F 78% 29.83 in 7.0 mi SSW 21.9 mph 28.8 mph N/A   Clear
12:15 PM 27.0 °F 12.8 °F 21.0 °F 78% 29.81 in 7.0 mi SW 21.9 mph 28.8 mph N/A   Clear
12:35 PM 27.5 °F 13.2 °F 21.6 °F 78% 29.80 in 5.0 mi SW 23.0 mph 32.2 mph N/A   Haze
12:55 PM 28.4 °F 14.1 °F 22.3 °F 78% 29.77 in 7.0 mi SSW 24.2 mph 31.1 mph N/A   Clear
1:15 PM 29.3 °F 15.3 °F 22.8 °F 77% 29.75 in 7.0 mi SSW 24.2 mph 29.9 mph N/A   Clear
1:35 PM 30.2 °F 16.2 °F 23.2 °F 75% 29.75 in 7.0 mi SW 25.3 mph 31.1 mph N/A   Clear
1:55 PM 31.6 °F 18.4 °F 24.3 °F 74% 29.73 in 7.0 mi SW 24.2 mph 32.2 mph N/A   Clear
2:15 PM 32.0 °F 18.4 °F 25.0 °F 75% 29.73 in 5.0 mi SSW 26.5 mph 35.7 mph N/A   Haze
2:35 PM 32.5 °F 20.2 °F 25.5 °F 75% 29.72 in 10.0 mi SSW 21.9 mph 27.6 mph N/A   Clear
2:55 PM 32.2 °F 20.4 °F 25.3 °F 76% 29.71 in 10.0 mi SSW 19.6 mph 27.6 mph N/A   Clear
3:15 PM 32.5 °F 20.5 °F 25.3 °F 75% 29.70 in 10.0 mi SSW 20.7 mph 26.5 mph N/A   Clear
3:35 PM 32.9 °F 21.3 °F 25.7 °F 75% 29.70 in 10.0 mi SSW 19.6 mph 27.6 mph N/A   Clear
3:55 PM 33.1 °F 21.5 °F 25.7 °F 74% 29.70 in 10.0 mi SSW 19.6 mph 28.8 mph N/A   Clear
4:15 PM 33.1 °F 21.5 °F 26.1 °F 75% 29.70 in 10.0 mi SSW 19.6 mph 24.2 mph N/A   Clear
4:35 PM 33.3 °F 21.8 °F 26.2 °F 75% 29.70 in 10.0 mi SSW 19.6 mph 25.3 mph N/A   Clear
4:55 PM 33.4 °F 22.3 °F 26.6 °F 76% 29.69 in 10.0 mi SSW 18.4 mph 26.5 mph N/A   Clear
5:15 PM 33.6 °F 22.9 °F 26.6 °F 75% 29.69 in 10.0 mi SSW 17.3 mph 25.3 mph N/A   Clear
5:35 PM 33.4 °F 23.1 °F 26.8 °F 77% 29.68 in 10.0 mi SSW 16.1 mph 25.3 mph N/A   Clear
5:55 PM 33.1 °F 22.2 °F 26.6 °F 77% 29.68 in 10.0 mi SSW 17.3 mph 23.0 mph N/A   Clear
6:15 PM 32.9 °F 21.6 °F 26.6 °F 78% 29.68 in 10.0 mi SSW 18.4 mph 25.3 mph N/A   Clear
6:55 PM 33.1 °F 21.5 °F 26.1 °F 75% 29.67 in 10.0 mi SSW 19.6 mph 24.2 mph N/A   Clear
7:15 PM 32.9 °F 21.0 °F 25.7 °F 75% 29.67 in 10.0 mi SSW 20.7 mph 27.6 mph N/A   Clear
7:35 PM 32.9 °F 21.3 °F 25.5 °F 74% 29.66 in 10.0 mi SSW 19.6 mph 23.0 mph N/A   Clear
7:55 PM 32.5 °F 21.2 °F 25.5 °F 75% 29.65 in 10.0 mi SSW 18.4 mph - N/A   Clear
8:15 PM 32.4 °F 21.3 °F 25.3 °F 75% 29.65 in 10.0 mi SSW 17.3 mph - N/A   Clear
8:35 PM 32.7 °F 21.1 °F 25.2 °F 74% 29.65 in 10.0 mi SSW 19.6 mph 24.2 mph N/A   Clear
8:55 PM 32.9 °F 21.3 °F 25.3 °F 74% 29.64 in 10.0 mi SSW 19.6 mph 25.3 mph N/A   Clear
9:15 PM 34.2 °F 22.3 °F 25.5 °F 71% 29.64 in 10.0 mi SW 21.9 mph 28.8 mph N/A   Clear
9:35 PM 35.1 °F 23.3 °F 25.7 °F 69% 29.63 in 10.0 mi SW 23.0 mph 33.4 mph N/A   Clear
9:55 PM 35.4 °F 23.7 °F 26.1 °F 69% 29.63 in 10.0 mi SW 23.0 mph 31.1 mph N/A   Clear
10:15 PM 35.6 °F 24.2 °F 26.1 °F 68% 29.62 in 10.0 mi SW 21.9 mph 27.6 mph N/A   Clear
10:35 PM 35.8 °F 25.1 °F 26.1 °F 68% 29.62 in 10.0 mi SW 19.6 mph - N/A   Clear
10:55 PM 35.8 °F 25.7 °F 26.2 °F 68% 29.62 in 10.0 mi SW 17.3 mph - N/A   Clear
11:15 PM 35.8 °F 25.4 °F 26.1 °F 68% 29.62 in 10.0 mi SW 18.4 mph - N/A   Clear
11:35 PM 36.1 °F 26.2 °F 26.2 °F 67% 29.62 in 10.0 mi SW 17.3 mph 23.0 mph N/A   Clear
11:55 PM 36.9 °F 25.9 °F 26.1 °F 65% 29.62 in 10.0 mi SW 21.9 mph 25.3 mph N/A   Clear